Time;durP1;ratioP1;P1;durP2;ratioP2;P2;SDS_P1;SDS_P2;PMS_P1;PMS_P2;Temp;Humidity;BMP_temperature;BMP_pressure;BME280_temperature;BME280_humidity;BME280_pressure;Samples;Min_cycle;Max_cycle;Signal;HPM_P1;HPM_P2
2023/11/05 00:00:41;;;;;;;1.10;0.60;;;;;;;;;;10568859;27;20421;-86
2023/11/05 00:05:44;;;;;;;1.27;0.70;;;;;;;;;;10582868;27;20438;-86
2023/11/05 00:10:47;;;;;;;1.00;0.80;;;;;;;;;;10584759;27;20401;-85
2023/11/05 00:15:54;;;;;;;1.57;0.80;;;;;;;;;;10564934;27;20487;-86
2023/11/05 00:20:57;;;;;;;0.70;0.70;;;;;;;;;;10595355;27;20413;-88
2023/11/05 00:26:01;;;;;;;0.68;0.68;;;;;;;;;;10582711;27;20410;-88
2023/11/05 00:31:04;;;;;;;1.63;0.87;;;;;;;;;;10577860;27;21018;-88
2023/11/05 00:36:08;;;;;;;1.83;1.00;;;;;;;;;;10584049;27;20403;-88
2023/11/05 00:41:12;;;;;;;1.88;0.65;;;;;;;;;;10572120;27;20481;-88
2023/11/05 00:46:14;;;;;;;0.60;0.60;;;;;;;;;;10564040;27;20880;-87
2023/11/05 00:51:17;;;;;;;0.47;0.47;;;;;;;;;;10581309;27;20410;-88
2023/11/05 00:56:20;;;;;;;0.50;0.40;;;;;;;;;;10582851;27;20809;-88
2023/11/05 01:01:23;;;;;;;0.80;0.38;;;;;;;;;;10582390;27;20826;-87
2023/11/05 01:06:25;;;;;;;0.83;0.40;;;;;;;;;;10587226;27;20396;-86
2023/11/05 01:11:29;;;;;;;0.30;0.20;;;;;;;;;;10607509;27;20451;-86
2023/11/05 01:16:31;;;;;;;0.20;0.20;;;;;;;;;;10577858;27;20880;-86
2023/11/05 01:21:33;;;;;;;0.45;0.20;;;;;;;;;;10585947;27;20418;-87
2023/11/05 01:26:38;;;;;;;0.23;0.10;;;;;;;;;;10592495;27;20776;-88
2023/11/05 01:31:40;;;;;;;0.80;0.20;;;;;;;;;;10588813;27;20399;-86
2023/11/05 01:36:43;;;;;;;0.40;0.20;;;;;;;;;;10594549;27;20434;-86
2023/11/05 01:41:47;;;;;;;1.30;0.17;;;;;;;;;;10591944;27;20970;-88
2023/11/05 01:46:49;;;;;;;0.40;0.40;;;;;;;;;;10582779;27;20401;-88
2023/11/05 01:51:51;;;;;;;0.10;0.10;;;;;;;;;;10591349;27;20456;-87
2023/11/05 01:56:55;;;;;;;1.42;0.40;;;;;;;;;;10589216;27;20397;-88
2023/11/05 02:01:58;;;;;;;1.63;0.50;;;;;;;;;;10600313;27;20453;-88
2023/11/05 02:07:00;;;;;;;1.00;0.52;;;;;;;;;;10607557;27;20404;-88
2023/11/05 02:12:04;;;;;;;0.40;0.40;;;;;;;;;;10591026;27;20397;-87
2023/11/05 02:17:07;;;;;;;0.47;0.30;;;;;;;;;;10587303;27;20393;-87
2023/11/05 02:22:14;;;;;;;1.20;0.30;;;;;;;;;;10599304;27;20507;-87
2023/11/05 02:27:18;;;;;;;0.28;0.20;;;;;;;;;;10575257;28;20471;-88
2023/11/05 02:32:21;;;;;;;1.27;0.40;;;;;;;;;;10586586;27;20410;-87
2023/11/05 02:37:24;;;;;;;0.20;0.10;;;;;;;;;;10587203;28;20866;-88
2023/11/05 02:42:28;;;;;;;0.20;0.20;;;;;;;;;;10591296;28;20410;-88
2023/11/05 02:47:30;;;;;;;0.98;0.20;;;;;;;;;;10601257;28;20403;-87
2023/11/05 02:52:32;;;;;;;0.20;0.10;;;;;;;;;;10583919;27;20456;-87
2023/11/05 02:57:37;;;;;;;0.20;0.20;;;;;;;;;;10601179;27;20428;-88
2023/11/05 03:02:39;;;;;;;0.20;0.10;;;;;;;;;;10588846;27;20448;-88
2023/11/05 03:07:42;;;;;;;0.17;0.10;;;;;;;;;;10596097;27;20472;-88
2023/11/05 03:12:46;;;;;;;0.20;0.10;;;;;;;;;;10596367;27;20741;-87
2023/11/05 03:17:48;;;;;;;0.20;0.10;;;;;;;;;;10607040;27;20405;-88
2023/11/05 03:22:50;;;;;;;0.00;0.00;;;;;;;;;;10601808;27;20430;-88
2023/11/05 03:27:54;;;;;;;0.50;0.00;;;;;;;;;;10599358;27;20398;-88
2023/11/05 03:32:56;;;;;;;0.30;0.03;;;;;;;;;;10600509;27;20458;-86
2023/11/05 03:37:59;;;;;;;0.00;0.00;;;;;;;;;;10603377;27;20381;-86
2023/11/05 03:43:02;;;;;;;0.10;0.10;;;;;;;;;;10582280;27;20414;-87
2023/11/05 03:48:07;;;;;;;0.00;0.00;;;;;;;;;;10583606;27;20407;-86
2023/11/05 03:53:10;;;;;;;0.20;0.03;;;;;;;;;;10601125;27;20452;-87
2023/11/05 03:58:13;;;;;;;0.20;0.00;;;;;;;;;;10612075;27;20956;-85
2023/11/05 04:03:16;;;;;;;0.00;0.00;;;;;;;;;;10599863;27;20418;-87
2023/11/05 04:08:18;;;;;;;0.30;0.00;;;;;;;;;;10597303;27;20546;-87
2023/11/05 04:13:22;;;;;;;0.30;0.00;;;;;;;;;;10596057;27;20402;-87
2023/11/05 04:18:25;;;;;;;0.10;0.10;;;;;;;;;;10594506;27;20485;-88
2023/11/05 04:23:27;;;;;;;0.10;0.10;;;;;;;;;;10601452;27;20483;-88
2023/11/05 04:28:31;;;;;;;0.20;0.20;;;;;;;;;;10599640;27;20404;-87
2023/11/05 04:33:33;;;;;;;0.30;0.20;;;;;;;;;;10606155;27;20393;-87
2023/11/05 04:38:37;;;;;;;1.30;0.20;;;;;;;;;;10595840;27;20432;-87
2023/11/05 04:43:41;;;;;;;2.07;0.20;;;;;;;;;;10570171;27;20477;-87
2023/11/05 04:48:43;;;;;;;0.20;0.17;;;;;;;;;;10582088;27;20406;-87
2023/11/05 04:53:46;;;;;;;0.20;0.20;;;;;;;;;;10573788;27;20458;-87
2023/11/05 04:58:49;;;;;;;0.10;0.10;;;;;;;;;;10604043;27;20389;-87
2023/11/05 05:03:52;;;;;;;0.20;0.10;;;;;;;;;;10620363;27;20446;-87
2023/11/05 05:08:54;;;;;;;0.40;0.30;;;;;;;;;;10579214;27;20414;-87
2023/11/05 05:13:58;;;;;;;0.50;0.20;;;;;;;;;;10565604;27;20412;-87
2023/11/05 05:19:00;;;;;;;0.17;0.17;;;;;;;;;;10591913;27;20417;-88
2023/11/05 05:24:03;;;;;;;0.30;0.20;;;;;;;;;;10573829;27;20428;-87
2023/11/05 05:29:07;;;;;;;0.30;0.23;;;;;;;;;;10575242;27;20874;-87
2023/11/05 05:34:10;;;;;;;0.20;0.20;;;;;;;;;;10578095;27;20399;-87
2023/11/05 05:39:12;;;;;;;0.50;0.30;;;;;;;;;;10568340;27;20499;-87
2023/11/05 05:44:16;;;;;;;0.93;0.30;;;;;;;;;;10568335;27;20426;-88
2023/11/05 05:49:18;;;;;;;1.45;0.45;;;;;;;;;;10566857;27;20433;-88
2023/11/05 05:54:21;;;;;;;0.85;0.40;;;;;;;;;;10570079;27;20418;-87
2023/11/05 05:59:24;;;;;;;0.40;0.40;;;;;;;;;;10562598;27;20396;-87
2023/11/05 06:04:27;;;;;;;0.65;0.30;;;;;;;;;;10586418;27;20416;-87
2023/11/05 06:09:29;;;;;;;0.50;0.47;;;;;;;;;;10561483;27;20452;-87
2023/11/05 06:14:33;;;;;;;0.73;0.60;;;;;;;;;;10574573;27;20402;-87
2023/11/05 06:19:35;;;;;;;0.55;0.55;;;;;;;;;;10577256;27;20472;-87
2023/11/05 06:24:41;;;;;;;1.38;0.52;;;;;;;;;;10572921;27;20449;-87
2023/11/05 06:29:45;;;;;;;1.83;0.70;;;;;;;;;;10575692;27;20395;-87
2023/11/05 06:34:47;;;;;;;0.50;0.50;;;;;;;;;;10571180;28;20404;-87
2023/11/05 06:39:49;;;;;;;1.67;1.58;;;;;;;;;;10570721;28;20407;-88
2023/11/05 06:44:53;;;;;;;1.10;1.00;;;;;;;;;;10559206;28;20471;-87
2023/11/05 06:49:55;;;;;;;1.03;0.90;;;;;;;;;;10560070;28;20457;-87
2023/11/05 06:54:58;;;;;;;1.23;0.97;;;;;;;;;;10560288;28;20416;-87
2023/11/05 07:00:04;;;;;;;1.42;1.00;;;;;;;;;;10562577;28;20820;-87
2023/11/05 07:05:07;;;;;;;1.30;0.95;;;;;;;;;;10565693;28;20471;-87
2023/11/05 07:10:10;;;;;;;1.47;1.00;;;;;;;;;;10562626;28;20415;-87
2023/11/05 07:15:14;;;;;;;2.10;1.00;;;;;;;;;;10557845;28;20957;-87
2023/11/05 07:20:16;;;;;;;1.00;0.80;;;;;;;;;;10570004;28;20414;-87
2023/11/05 07:25:19;;;;;;;0.90;0.70;;;;;;;;;;10556810;28;20882;-86
2023/11/05 07:30:23;;;;;;;1.13;0.88;;;;;;;;;;10572360;28;20391;-81
2023/11/05 07:35:26;;;;;;;0.80;0.77;;;;;;;;;;10571364;28;20861;-86
2023/11/05 07:40:28;;;;;;;0.93;0.80;;;;;;;;;;10577618;27;20407;-87
2023/11/05 07:45:32;;;;;;;1.20;0.80;;;;;;;;;;10580259;27;20420;-81
2023/11/05 07:50:35;;;;;;;1.20;0.90;;;;;;;;;;10578904;27;20805;-87
2023/11/05 07:55:37;;;;;;;0.60;0.60;;;;;;;;;;10575508;27;20439;-87
2023/11/05 08:00:42;;;;;;;0.98;0.70;;;;;;;;;;10573375;27;20461;-87
2023/11/05 08:05:44;;;;;;;1.57;0.80;;;;;;;;;;10574597;27;20418;-86
2023/11/05 08:10:47;;;;;;;1.53;1.00;;;;;;;;;;10571591;27;20468;-86
2023/11/05 08:15:51;;;;;;;0.90;0.70;;;;;;;;;;10576923;27;20399;-87
2023/11/05 08:20:54;;;;;;;1.20;0.90;;;;;;;;;;10569601;27;20404;-87
2023/11/05 08:25:56;;;;;;;2.63;0.85;;;;;;;;;;10574446;27;20416;-87
2023/11/05 08:31:00;;;;;;;1.42;0.60;;;;;;;;;;10576875;27;20459;-88
2023/11/05 08:36:05;;;;;;;0.63;0.50;;;;;;;;;;10575732;27;20404;-88
2023/11/05 08:41:08;;;;;;;1.33;0.50;;;;;;;;;;10589757;27;20393;-87
2023/11/05 08:46:12;;;;;;;0.60;0.50;;;;;;;;;;10605885;27;20416;-87
2023/11/05 08:51:25;;;;;;;0.43;0.40;;;;;;;;;;10589120;27;20453;-89
2023/11/05 08:56:27;;;;;;;0.70;0.43;;;;;;;;;;10572303;27;20395;-88
2023/11/05 09:01:31;;;;;;;1.15;0.40;;;;;;;;;;10567434;27;20399;-88
2023/11/05 09:06:34;;;;;;;0.53;0.37;;;;;;;;;;10572464;27;20423;-88
2023/11/05 09:11:36;;;;;;;0.60;0.30;;;;;;;;;;10572403;27;20405;-88
2023/11/05 09:16:40;;;;;;;0.60;0.40;;;;;;;;;;10591287;27;20403;-89
2023/11/05 09:21:45;;;;;;;0.55;0.40;;;;;;;;;;10576069;27;20447;-89
2023/11/05 09:26:47;;;;;;;0.90;0.40;;;;;;;;;;10589584;27;20459;-88
2023/11/05 09:31:51;;;;;;;0.40;0.40;;;;;;;;;;10581838;27;20468;-87
2023/11/05 09:36:53;;;;;;;0.55;0.47;;;;;;;;;;10582260;27;20406;-87
2023/11/05 09:41:56;;;;;;;1.20;0.50;;;;;;;;;;10580627;27;20459;-87
2023/11/05 09:47:00;;;;;;;1.40;0.57;;;;;;;;;;10585572;27;20438;-88
2023/11/05 09:52:02;;;;;;;0.93;0.60;;;;;;;;;;10575812;27;20474;-87
2023/11/05 09:57:05;;;;;;;0.87;0.60;;;;;;;;;;10557705;27;20404;-87
2023/11/05 10:02:09;;;;;;;0.60;0.53;;;;;;;;;;10579396;27;20405;-88
2023/11/05 10:07:11;;;;;;;0.98;0.60;;;;;;;;;;10577248;27;20419;-88
2023/11/05 10:12:14;;;;;;;1.33;0.63;;;;;;;;;;10578931;27;20421;-88
2023/11/05 10:17:18;;;;;;;0.77;0.57;;;;;;;;;;10580665;27;20881;-89
2023/11/05 10:22:20;;;;;;;1.20;0.60;;;;;;;;;;10565809;22;20420;-81
2023/11/05 10:27:27;;;;;;;1.20;0.60;;;;;;;;;;10538399;28;20412;-81
2023/11/05 10:32:32;;;;;;;2.38;0.70;;;;;;;;;;10536406;28;20474;-82
2023/11/05 10:37:36;;;;;;;0.60;0.60;;;;;;;;;;10531402;28;20400;-81
2023/11/05 10:42:40;;;;;;;1.80;1.00;;;;;;;;;;10532439;28;20514;-81
2023/11/05 10:47:45;;;;;;;1.20;0.50;;;;;;;;;;10535680;28;20441;-81
2023/11/05 10:52:51;;;;;;;0.73;0.50;;;;;;;;;;10529598;28;20447;-81
2023/11/05 10:57:54;;;;;;;2.47;0.80;;;;;;;;;;10529040;28;20764;-81
2023/11/05 11:03:01;;;;;;;1.67;0.53;;;;;;;;;;10529715;28;20517;-81
2023/11/05 11:08:03;;;;;;;3.33;0.80;;;;;;;;;;10527659;28;20970;-82
2023/11/05 11:13:11;;;;;;;1.50;0.60;;;;;;;;;;10527580;28;20440;-81
2023/11/05 11:18:19;;;;;;;0.90;0.70;;;;;;;;;;10534363;28;20406;-81
2023/11/05 11:23:22;;;;;;;1.50;0.77;;;;;;;;;;10534613;28;20446;-81
2023/11/05 11:28:30;;;;;;;1.48;0.80;;;;;;;;;;10534004;28;20485;-82
2023/11/05 11:33:34;;;;;;;1.88;1.00;;;;;;;;;;10536501;28;20432;-85
2023/11/05 11:38:38;;;;;;;3.10;1.20;;;;;;;;;;10534966;28;20462;-81
2023/11/05 11:43:40;;;;;;;1.88;1.15;;;;;;;;;;10536125;28;20930;-81
2023/11/05 11:48:44;;;;;;;3.00;1.23;;;;;;;;;;10535599;28;20397;-82
2023/11/05 11:53:46;;;;;;;3.42;2.15;;;;;;;;;;10535349;28;20981;-81
2023/11/05 11:58:49;;;;;;;3.22;1.40;;;;;;;;;;10523644;28;20497;-81
2023/11/05 12:03:52;;;;;;;2.67;1.50;;;;;;;;;;10529631;28;20487;-81
2023/11/05 12:08:56;;;;;;;4.97;1.38;;;;;;;;;;10517109;28;20506;-81
2023/11/05 12:14:02;;;;;;;2.13;1.50;;;;;;;;;;10525641;28;20825;-82
2023/11/05 12:19:07;;;;;;;2.90;1.60;;;;;;;;;;10524697;28;20443;-82
2023/11/05 12:24:10;;;;;;;3.93;1.53;;;;;;;;;;10505377;28;20448;-83
2023/11/05 12:29:13;;;;;;;5.13;1.60;;;;;;;;;;10504555;28;20512;-82
2023/11/05 12:34:16;;;;;;;3.40;1.73;;;;;;;;;;10508102;28;20576;-82
2023/11/05 12:39:19;;;;;;;2.08;1.27;;;;;;;;;;10515291;28;20527;-82
2023/11/05 12:44:21;;;;;;;3.57;1.70;;;;;;;;;;10518516;28;20476;-82
2023/11/05 12:49:25;;;;;;;2.60;1.58;;;;;;;;;;10516239;28;20830;-82
2023/11/05 12:54:27;;;;;;;4.53;1.60;;;;;;;;;;10504840;28;20530;-81
2023/11/05 12:59:30;;;;;;;3.38;1.50;;;;;;;;;;10508871;28;20810;-81
2023/11/05 13:04:34;;;;;;;2.83;1.50;;;;;;;;;;10513083;28;20447;-83
2023/11/05 13:09:37;;;;;;;3.00;1.33;;;;;;;;;;10511612;28;20401;-82
2023/11/05 13:14:39;;;;;;;2.22;1.38;;;;;;;;;;10508471;28;20440;-82
2023/11/05 13:19:43;;;;;;;1.80;1.00;;;;;;;;;;10517708;28;20493;-82
2023/11/05 13:24:45;;;;;;;3.17;1.40;;;;;;;;;;10520519;28;21140;-82
2023/11/05 13:29:48;;;;;;;4.60;1.30;;;;;;;;;;10513209;28;20493;-82
2023/11/05 13:34:51;;;;;;;3.73;1.30;;;;;;;;;;10507797;28;20433;-82
2023/11/05 13:39:54;;;;;;;2.08;1.17;;;;;;;;;;10514458;28;20428;-82
2023/11/05 13:44:58;;;;;;;1.10;0.80;;;;;;;;;;10517531;28;20448;-82
2023/11/05 13:50:01;;;;;;;1.97;0.83;;;;;;;;;;10505688;28;20917;-81
2023/11/05 13:55:05;;;;;;;1.02;0.90;;;;;;;;;;10500930;28;20540;-81
2023/11/05 14:00:08;;;;;;;0.82;0.82;;;;;;;;;;10504156;28;20489;-81
2023/11/05 14:05:14;;;;;;;1.10;1.00;;;;;;;;;;10499044;28;21068;-83
2023/11/05 14:10:16;;;;;;;1.45;0.90;;;;;;;;;;10503329;28;20501;-82
2023/11/05 14:15:19;;;;;;;1.17;0.90;;;;;;;;;;10505135;28;20431;-82
2023/11/05 14:20:23;;;;;;;1.13;1.00;;;;;;;;;;10499125;28;20432;-82
2023/11/05 14:25:25;;;;;;;1.00;0.90;;;;;;;;;;10502612;28;20489;-81
2023/11/05 14:30:28;;;;;;;1.10;1.00;;;;;;;;;;10506871;28;20498;-83
2023/11/05 14:35:32;;;;;;;1.27;0.87;;;;;;;;;;10506311;28;20474;-82
2023/11/05 14:40:34;;;;;;;1.80;1.10;;;;;;;;;;10505834;28;20448;-81
2023/11/05 14:45:36;;;;;;;2.10;1.48;;;;;;;;;;10501572;28;20451;-80
2023/11/05 14:50:41;;;;;;;1.55;1.17;;;;;;;;;;10506478;28;20451;-80
2023/11/05 14:55:44;;;;;;;1.70;1.20;;;;;;;;;;10512223;28;20495;-81
2023/11/05 15:00:46;;;;;;;2.80;1.40;;;;;;;;;;10514774;28;20485;-82
2023/11/05 15:05:50;;;;;;;2.30;1.30;;;;;;;;;;10518135;28;20866;-81
2023/11/05 15:10:53;;;;;;;1.80;1.40;;;;;;;;;;10516753;28;20998;-80
2023/11/05 15:15:56;;;;;;;1.17;1.08;;;;;;;;;;10512336;28;20797;-81
2023/11/05 15:20:59;;;;;;;2.30;1.50;;;;;;;;;;10515861;28;20447;-80
2023/11/05 15:26:02;;;;;;;1.50;1.38;;;;;;;;;;10515005;28;20455;-81
2023/11/05 15:31:05;;;;;;;1.23;1.10;;;;;;;;;;10513066;28;20464;-80
2023/11/05 15:36:10;;;;;;;2.45;1.45;;;;;;;;;;10509489;28;20455;-81
2023/11/05 15:41:13;;;;;;;1.85;1.40;;;;;;;;;;10515700;28;20510;-80
2023/11/05 15:46:15;;;;;;;2.38;1.60;;;;;;;;;;10516161;28;20848;-80
2023/11/05 15:51:22;;;;;;;1.55;1.30;;;;;;;;;;10513901;28;20446;-80
2023/11/05 15:56:24;;;;;;;2.97;2.00;;;;;;;;;;10515291;28;20508;-81
2023/11/05 16:01:27;;;;;;;2.42;2.20;;;;;;;;;;10511250;28;20904;-84
2023/11/05 16:06:30;;;;;;;8.43;7.50;;;;;;;;;;10514790;28;20460;-81
2023/11/05 16:11:33;;;;;;;2.38;2.13;;;;;;;;;;10512900;28;20432;-82
2023/11/05 16:16:35;;;;;;;2.72;2.15;;;;;;;;;;10512172;28;20447;-81
2023/11/05 16:21:39;;;;;;;2.55;2.20;;;;;;;;;;10510087;28;21026;-81
2023/11/05 16:26:41;;;;;;;2.70;2.05;;;;;;;;;;10510875;28;20458;-81
2023/11/05 16:31:45;;;;;;;4.07;3.33;;;;;;;;;;10511678;28;20451;-82
2023/11/05 16:36:48;;;;;;;4.05;2.38;;;;;;;;;;10507881;28;20501;-82
2023/11/05 16:41:51;;;;;;;22.42;14.00;;;;;;;;;;10503915;28;20440;-82
2023/11/05 16:46:54;;;;;;;7.77;5.67;;;;;;;;;;10508102;28;21218;-82
2023/11/05 16:51:57;;;;;;;9.38;6.40;;;;;;;;;;10513474;28;21104;-82
2023/11/05 16:57:00;;;;;;;6.32;4.70;;;;;;;;;;10516340;28;20396;-82
2023/11/05 17:02:02;;;;;;;7.97;5.60;;;;;;;;;;10505306;28;20818;-82
2023/11/05 17:07:06;;;;;;;9.17;7.40;;;;;;;;;;10506343;28;20987;-82
2023/11/05 17:12:09;;;;;;;11.40;8.90;;;;;;;;;;10507260;28;20475;-82
2023/11/05 17:17:11;;;;;;;7.25;6.07;;;;;;;;;;10512039;28;20975;-82
2023/11/05 17:22:18;;;;;;;8.23;5.50;;;;;;;;;;10503579;28;20441;-82
2023/11/05 17:27:20;;;;;;;12.93;9.27;;;;;;;;;;10507222;28;20507;-82
2023/11/05 17:32:22;;;;;;;10.73;7.25;;;;;;;;;;10505557;28;20462;-83
2023/11/05 17:37:27;;;;;;;8.82;5.75;;;;;;;;;;10495551;28;20449;-81
2023/11/05 17:42:29;;;;;;;7.27;6.47;;;;;;;;;;10504025;28;20511;-79
2023/11/05 17:47:32;;;;;;;16.02;10.48;;;;;;;;;;10493385;28;20453;-80
2023/11/05 17:52:36;;;;;;;16.30;11.18;;;;;;;;;;10509203;28;20444;-81
2023/11/05 17:57:38;;;;;;;16.90;10.77;;;;;;;;;;10502284;28;20866;-81
2023/11/05 18:02:40;;;;;;;12.23;8.70;;;;;;;;;;10500026;28;20438;-81
2023/11/05 18:07:44;;;;;;;12.10;8.25;;;;;;;;;;10502087;28;20929;-80
2023/11/05 18:12:46;;;;;;;10.57;8.10;;;;;;;;;;10509197;28;20449;-81
2023/11/05 18:17:49;;;;;;;11.57;8.50;;;;;;;;;;10499549;28;20833;-81
2023/11/05 18:22:52;;;;;;;11.85;9.00;;;;;;;;;;10502209;28;20441;-81
2023/11/05 18:27:55;;;;;;;14.23;9.10;;;;;;;;;;10500786;28;20503;-80
2023/11/05 18:32:57;;;;;;;12.53;8.40;;;;;;;;;;10497524;28;20438;-80
2023/11/05 18:38:01;;;;;;;11.73;8.40;;;;;;;;;;10505463;28;20453;-81
2023/11/05 18:43:04;;;;;;;13.95;9.82;;;;;;;;;;10497379;28;20515;-80
2023/11/05 18:48:06;;;;;;;13.15;9.55;;;;;;;;;;10504231;28;20882;-81
2023/11/05 18:53:10;;;;;;;12.30;9.00;;;;;;;;;;10513111;28;20452;-81
2023/11/05 18:58:13;;;;;;;17.77;10.00;;;;;;;;;;10512853;28;20402;-81
2023/11/05 19:03:15;;;;;;;13.93;8.95;;;;;;;;;;10499411;28;20446;-81
2023/11/05 19:08:20;;;;;;;12.27;8.02;;;;;;;;;;10512708;28;20513;-81
2023/11/05 19:13:22;;;;;;;11.25;8.57;;;;;;;;;;10497121;28;20497;-80
2023/11/05 19:18:24;;;;;;;11.65;8.57;;;;;;;;;;10501146;28;20478;-80
2023/11/05 19:23:28;;;;;;;12.60;9.68;;;;;;;;;;10496389;28;20445;-80
2023/11/05 19:28:31;;;;;;;15.10;11.37;;;;;;;;;;10513361;28;20515;-80
2023/11/05 19:33:33;;;;;;;14.60;10.20;;;;;;;;;;10510644;28;20503;-86
2023/11/05 19:38:37;;;;;;;14.60;10.30;;;;;;;;;;10525694;28;20470;-80
2023/11/05 19:43:39;;;;;;;18.60;12.15;;;;;;;;;;10514392;28;20418;-81
2023/11/05 19:48:42;;;;;;;16.40;11.50;;;;;;;;;;10519860;28;20516;-81
2023/11/05 19:53:46;;;;;;;18.43;12.37;;;;;;;;;;10517088;28;20760;-80
2023/11/05 19:58:48;;;;;;;18.83;12.77;;;;;;;;;;10513096;28;20474;-81
2023/11/05 20:03:51;;;;;;;18.00;11.52;;;;;;;;;;10514762;28;20435;-81
2023/11/05 20:08:54;;;;;;;15.27;10.93;;;;;;;;;;10516660;28;21010;-81
2023/11/05 20:13:57;;;;;;;15.63;10.15;;;;;;;;;;10513711;28;20964;-80
2023/11/05 20:19:00;;;;;;;13.13;10.23;;;;;;;;;;10514283;28;20470;-80
2023/11/05 20:24:03;;;;;;;12.80;9.18;;;;;;;;;;10516334;28;20536;-81
2023/11/05 20:29:06;;;;;;;12.88;9.80;;;;;;;;;;10514266;28;20567;-81
2023/11/05 20:34:09;;;;;;;13.05;8.75;;;;;;;;;;10504934;28;20994;-82
2023/11/05 20:39:13;;;;;;;13.27;9.75;;;;;;;;;;10512980;28;20543;-80
2023/11/05 20:44:15;;;;;;;13.00;9.70;;;;;;;;;;10511413;28;20447;-81
2023/11/05 20:49:18;;;;;;;15.47;9.83;;;;;;;;;;10506779;28;20440;-81
2023/11/05 20:54:21;;;;;;;14.50;10.20;;;;;;;;;;10507870;28;20428;-81
2023/11/05 20:59:24;;;;;;;13.38;10.35;;;;;;;;;;10507146;28;20424;-81
2023/11/05 21:04:28;;;;;;;14.13;10.77;;;;;;;;;;10512660;28;20514;-81
2023/11/05 21:09:32;;;;;;;15.93;10.32;;;;;;;;;;10513580;28;20444;-81
2023/11/05 21:14:34;;;;;;;20.53;12.90;;;;;;;;;;10512824;28;20447;-81
2023/11/05 21:19:37;;;;;;;16.00;11.33;;;;;;;;;;10517635;28;20442;-81
2023/11/05 21:24:41;;;;;;;16.77;12.13;;;;;;;;;;10503570;28;20508;-81
2023/11/05 21:29:43;;;;;;;15.63;10.73;;;;;;;;;;10496380;28;20449;-80
2023/11/05 21:34:46;;;;;;;23.25;14.38;;;;;;;;;;10498771;28;20842;-81
2023/11/05 21:39:50;;;;;;;16.33;11.27;;;;;;;;;;10500444;28;20465;-81
2023/11/05 21:44:52;;;;;;;12.50;9.63;;;;;;;;;;10494130;28;20441;-81
2023/11/05 21:49:55;;;;;;;13.30;9.63;;;;;;;;;;10496728;28;20475;-81
2023/11/05 21:54:59;;;;;;;14.40;9.63;;;;;;;;;;10510573;28;20432;-81
2023/11/05 22:00:02;;;;;;;12.83;9.60;;;;;;;;;;10514523;28;20444;-80
2023/11/05 22:05:05;;;;;;;12.02;9.55;;;;;;;;;;10516944;28;20510;-80
2023/11/05 22:10:10;;;;;;;15.70;10.13;;;;;;;;;;10519698;28;21229;-81
2023/11/05 22:15:12;;;;;;;12.77;9.15;;;;;;;;;;10525310;28;20438;-80
2023/11/05 22:20:14;;;;;;;13.05;9.82;;;;;;;;;;10510967;28;20393;-81
2023/11/05 22:25:18;;;;;;;14.55;9.52;;;;;;;;;;10528462;28;20491;-80
2023/11/05 22:30:21;;;;;;;14.32;9.90;;;;;;;;;;10532890;28;20456;-80
2023/11/05 22:35:23;;;;;;;13.82;9.70;;;;;;;;;;10525105;28;20432;-80
2023/11/05 22:40:27;;;;;;;18.08;10.55;;;;;;;;;;10522286;28;20430;-81
2023/11/05 22:45:29;;;;;;;15.93;10.50;;;;;;;;;;10521571;28;20485;-81
2023/11/05 22:50:32;;;;;;;14.75;9.77;;;;;;;;;;10522041;28;20451;-81
2023/11/05 22:55:37;;;;;;;14.23;10.07;;;;;;;;;;10527610;28;20465;-81
2023/11/05 23:00:49;;;;;;;15.95;10.82;;;;;;;;;;10524406;28;20438;-81
2023/11/05 23:05:52;;;;;;;15.33;10.17;;;;;;;;;;10521989;28;20408;-79
2023/11/05 23:10:57;;;;;;;15.40;10.27;;;;;;;;;;10527511;28;20527;-81
2023/11/05 23:15:59;;;;;;;13.90;9.65;;;;;;;;;;10530237;28;20893;-80
2023/11/05 23:21:02;;;;;;;11.57;9.07;;;;;;;;;;10529207;28;20955;-81
2023/11/05 23:26:06;;;;;;;13.30;9.43;;;;;;;;;;10533438;28;20528;-81
2023/11/05 23:31:08;;;;;;;13.18;9.52;;;;;;;;;;10536403;28;20945;-81
2023/11/05 23:36:11;;;;;;;12.18;9.20;;;;;;;;;;10540875;28;21122;-81
2023/11/05 23:41:15;;;;;;;13.43;9.37;;;;;;;;;;10540713;28;20747;-82
2023/11/05 23:46:17;;;;;;;14.15;9.35;;;;;;;;;;10540624;28;20456;-82
2023/11/05 23:51:20;;;;;;;13.40;9.53;;;;;;;;;;10542679;28;20508;-81
2023/11/05 23:56:23;;;;;;;13.88;9.77;;;;;;;;;;10542201;28;20486;-81
